Latest Coastal Weather Observations for Devonport Airport

IDT60701

Issued at 3:11 pm EST Friday 28 August 2015 (issued every 10 minutes, with the page automatically refreshed every 10 minutes)

About coastal observations | Map of coastal stations | Coastal observations for TAS | Marine services | Other Formats
Station Details ID: 091126 Name: DEVONPORT AIRPORT Lat: -41.17 Lon: 146.43 Height: 8.0 m
Data from the previous 72 hours. | See also: Recent months at Devonport Airport
Date/Time
EST
Temp

°C
Wind Pressure Rain
since 9am
mm
Weather Cloud Vis
km
Sea
Height
m
Swell
Dir
 
Speed
knots
Gust
knots
hPa Trend Height
m
Period
s
Dir
28/03:00pm 12.2 S 10 15 1023.8 - 0.0 - Mostly clear 10 - - - -
28/02:30pm 11.4 S 14 20 1023.8 - 0.0 - - 10 - - - -
28/02:00pm 11.6 S 13 18 1024.0 - 0.0 - - 10 - - - -
28/01:30pm 11.4 S 13 21 1024.1 - 0.0 - - 10 - - - -
28/01:00pm 11.4 SSE 17 24 1024.3 - 0.0 - - 10 - - - -
28/12:30pm 10.8 S 19 27 1024.7 - 0.0 - - 10 - - - -
28/12:26pm 10.9 S 17 27 1024.6 - 0.0 - - 10 - - - -
28/12:00pm 10.6 S 17 25 1025.1 - 0.0 - - 10 - - - -
28/11:52am 10.8 SSE 15 25 1025.1 - 0.0 - - 10 - - - -
28/11:30am 11.1 S 13 17 1025.5 - 0.0 - - 10 - - - -
28/11:00am 10.3 S 15 21 1025.7 - 0.0 - - 10 - - - -
28/10:30am 10.1 SSE 18 25 1025.6 - 0.0 - - 10 - - - -
28/10:00am 9.7 SE 13 20 1025.6 - 0.0 - - 10 - - - -
28/09:30am 9.1 SE 13 17 1025.5 - 0.0 - - 10 - - - -
28/09:00am 8.5 SE 12 16 1025.4 - 0.0 - - 10 - - - -
28/08:30am 7.7 SSE 10 13 1025.1 - 0.0 - Partly cloudy 10 - - - -
28/08:00am 6.9 S 8 11 1024.8 - 0.0 - - 10 - - - -
28/07:30am 5.9 SSE 9 12 1024.3 - 0.0 - - 10 - - - -
28/07:00am 5.3 SSE 9 11 1023.9 - 0.0 - - 10 - - - -
28/06:30am 3.4 S 8 10 1023.7 - 0.0 - - 10 - - - -
28/06:00am 4.0 SSE 9 11 1023.4 - 0.0 - - 10 - - - -
28/05:30am 3.8 S 3 6 1023.1 - 0.0 - - 10 - - - -
28/05:00am 3.9 SSE 6 7 1022.6 - 0.0 - - 10 - - - -
28/04:30am 3.5 SSW 6 8 1022.4 - 0.0 - - 10 - - - -
28/04:00am 5.0 SSE 8 10 1022.1 - 0.0 - - 10 - - - -
28/03:30am 4.1 SSE 8 9 1022.0 - 0.0 - - 10 - - - -
28/03:00am 4.7 SSE 7 8 1021.9 - 0.0 - - 10 - - - -
28/02:30am 5.3 S 6 7 1022.0 - 0.0 - Partly cloudy 10 - - - -
28/02:00am 5.7 SSE 6 6 1022.2 - 0.0 - Partly cloudy 10 - - - -
28/01:30am 5.6 SSE 6 7 1022.4 - 0.0 - - 10 - - - -
28/01:00am 5.7 SSW 5 6 1022.4 - 0.0 - - 10 - - - -
28/12:30am 6.2 S 5 6 1022.2 - 0.0 - - 10 - - - -
28/12:00am 7.6 SSE 6 7 1022.1 - 0.0 - - 10 - - - -
 
Date/Time
EST
Temp

°C
Wind Pressure Rain
since 9am
mm
Weather Cloud Vis
km
Sea
Height
m
Swell
Dir
 
Speed
knots
Gust
knots
hPa Trend Height
m
Period
s
Dir
27/11:30pm 7.0 S 4 5 1022.3 - 0.0 - Partly cloudy 10 - - - -
27/11:00pm 8.8 SSW 5 7 1022.2 - 0.0 - Partly cloudy 10 - - - -
27/10:30pm 8.6 S 5 7 1022.0 - 0.0 - Partly cloudy 10 - - - -
27/10:00pm 9.5 SSE 7 9 1022.0 - 0.0 - - 10 - - - -
27/09:30pm 9.6 SSE 7 8 1022.1 - 0.0 - Partly cloudy 10 - - - -
27/09:00pm 10.5 SSE 7 9 1022.0 - 0.0 - Partly cloudy 10 - - - -
27/08:30pm 11.0 SSE 6 7 1021.8 - 0.0 - Partly cloudy 10 - - - -
27/08:00pm 11.7 SSE 7 10 1021.5 - 0.0 - Partly cloudy 10 - - - -
27/07:30pm 11.4 S 6 8 1021.1 - 0.0 - Partly cloudy 10 - - - -
27/07:00pm 11.1 SSE 6 8 1020.8 - 0.0 - Partly cloudy 10 - - - -
27/06:30pm 11.3 WNW 6 7 1020.6 - 0.0 - Partly cloudy 10 - - - -
27/06:00pm 11.1 W 7 9 1020.3 - 0.0 - Mostly cloudy 10 - - - -
27/05:30pm 11.5 WNW 11 13 1020.0 - 0.0 - Partly cloudy 10 - - - -
27/05:00pm 12.1 WNW 11 14 1019.7 - 0.0 - Partly cloudy 10 - - - -
27/04:30pm 12.3 WNW 11 14 1019.8 - 0.0 - Partly cloudy 10 - - - -
27/04:00pm 13.0 WNW 9 12 1019.7 - 0.0 - Partly cloudy 10 - - - -
27/03:30pm 13.6 NW 9 11 1019.7 - 0.0 - Partly cloudy 10 - - - -
27/03:00pm 13.9 NW 9 11 1019.7 - 0.0 - Partly cloudy 10 - - - -
27/02:30pm 14.4 WNW 8 10 1019.7 - 0.0 - - 10 - - - -
27/02:00pm 15.4 SSW 4 7 1020.0 - 0.0 - - 10 - - - -
27/01:30pm 15.0 SW 5 9 1020.5 - 0.0 - Partly cloudy 10 - - - -
27/01:00pm 15.6 WSW 5 8 1021.0 - 0.0 - Partly cloudy 10 - - - -
27/12:30pm 14.6 SSW 2 5 1021.5 - 0.0 - Cloudy 10 - - - -
27/12:00pm 14.3 SSE 5 7 1022.1 - 0.0 - Cloudy 10 - - - -
27/11:30am 13.9 SSE 6 9 1022.5 - 0.0 - Partly cloudy 10 - - - -
27/11:00am 13.2 S 7 10 1022.9 - 0.0 - Partly cloudy 10 - - - -
27/10:30am 12.1 S 8 11 1023.1 - 0.0 - Cloudy 10 - - - -
27/10:00am 11.6 SSE 9 12 1023.2 - 0.0 - Partly cloudy 10 - - - -
27/09:30am 10.8 S 10 13 1023.5 - 0.0 - Partly cloudy 10 - - - -
27/09:00am 10.1 S 9 11 1023.8 - 0.0 - Cloudy 10 - - - -
27/08:30am 9.7 S 9 11 1023.8 - 0.0 - Partly cloudy 10 - - - -
27/08:00am 9.2 SSE 10 12 1023.8 - 0.0 - Partly cloudy 10 - - - -
27/07:30am 8.8 S 9 11 1023.6 - 0.0 - Partly cloudy 10 - - - -
27/07:00am 8.6 S 10 12 1023.4 - 0.0 - Partly cloudy 10 - - - -
27/06:30am 8.6 S 10 11 1023.2 - 0.0 - Cloudy 10 - - - -
27/06:00am 8.6 S 10 11 1023.1 - 0.0 - Cloudy 10 - - - -
27/05:30am 8.4 S 10 11 1023.1 - 0.0 - Partly cloudy 10 - - - -
27/05:00am 8.4 S 10 13 1023.2 - 0.0 - Partly cloudy 10 - - - -
27/04:30am 8.5 SSE 11 12 1023.3 - 0.0 - Partly cloudy 10 - - - -
27/04:00am 8.6 SSE 10 11 1023.5 - 0.0 - Partly cloudy 10 - - - -
27/03:30am 8.7 SSE 9 11 1023.7 - 0.0 - Partly cloudy 10 - - - -
27/03:00am 8.8 SSE 9 11 1024.1 - 0.0 - Cloudy 10 - - - -
27/02:30am 9.0 SSE 8 10 1024.6 - 0.0 - Partly cloudy 10 - - - -
27/02:00am 9.1 SSE 9 10 1025.1 - 0.0 - Partly cloudy 10 - - - -
27/01:30am 9.1 SSE 8 9 1025.5 - 0.0 - Partly cloudy 10 - - - -
27/01:00am 9.2 SSE 8 10 1025.8 - 0.0 - Partly cloudy 10 - - - -
27/12:30am 9.2 SSE 8 10 1026.1 - 0.0 - Partly cloudy 10 - - - -
27/12:00am 8.9 SSE 7 8 1026.3 - 0.0 - Cloudy 10 - - - -
 
Date/Time
EST
Temp

°C
Wind Pressure Rain
since 9am
mm
Weather Cloud Vis
km
Sea
Height
m
Swell
Dir
 
Speed
knots
Gust
knots
hPa Trend Height
m
Period
s
Dir
26/11:30pm 9.1 SSE 8 10 1026.4 - 0.0 - Cloudy 10 - - - -
26/11:00pm 9.3 SE 5 6 1026.7 - 0.0 - Partly cloudy 10 - - - -
26/10:30pm 9.7 SSE 5 7 1027.2 - 0.0 - Cloudy 10 - - - -
26/10:00pm 10.0 ESE 5 7 1027.4 - 0.0 - Partly cloudy 10 - - - -
26/09:30pm 9.4 SSE 5 7 1027.5 - 0.0 - Partly cloudy 10 - - - -
26/09:00pm 9.6 SSE 8 9 1027.5 - 0.0 Drizzle Cloudy 10 - - - -
26/08:49pm 9.7 ESE 8 10 1027.6 - 0.0 - Partly cloudy 10 - - - -
26/08:38pm 10.0 E 11 14 1027.6 - 0.0 - Partly cloudy 6 - - - -
26/08:30pm 10.4 ENE 9 14 1027.7 - 0.0 - Partly cloudy 10 - - - -
26/08:00pm 10.2 E 4 5 1027.7 - 0.0 - Cloudy 10 - - - -
26/07:30pm 9.9 ENE 3 3 1027.7 - 0.0 - Partly cloudy 10 - - - -
26/07:00pm 10.2 ESE 1 4 1027.7 - 0.0 - Partly cloudy 10 - - - -
26/06:30pm 10.6 SE 1 3 1027.7 - 0.0 - Partly cloudy 10 - - - -
26/06:00pm 10.6 S 1 3 1027.6 - 0.0 - Cloudy 10 - - - -
26/05:30pm 11.2 CALM 0 0 1027.4 - 0.0 - Partly cloudy 10 - - - -
26/05:00pm 11.4 N 3 4 1027.4 - 0.0 - Cloudy 10 - - - -
26/04:30pm 11.5 NW 4 5 1027.4 - 0.0 - Cloudy 10 - - - -
26/04:00pm 11.9 NNW 6 7 1027.5 - 0.0 - Cloudy 10 - - - -
26/03:30pm 12.2 NNW 7 8 1027.5 - 0.0 - Cloudy 10 - - - -
26/03:00pm 12.5 NNW 5 7 1027.7 - 0.0 - Cloudy 10 - - - -
26/02:30pm 13.6 NNE 3 5 1028.0 - 0.0 - Partly cloudy 10 - - - -
26/02:00pm 13.1 NNE 3 5 1028.4 - 0.0 - Cloudy 10 - - - -
26/01:30pm 12.1 NNE 7 9 1029.1 - 0.0 - Cloudy 10 - - - -
26/01:00pm 12.0 N 9 11 1029.4 - 0.0 - Cloudy 10 - - - -
26/12:30pm 13.2 SE 5 9 1029.8 - 0.0 - Partly cloudy 10 - - - -
26/12:00pm 12.5 SE 5 6 1030.3 - 0.0 - Mostly cloudy 10 - - - -
26/11:30am 12.6 SE 7 12 1030.7 - 0.0 - Cloudy 10 - - - -
26/11:00am 11.8 SSE 8 11 1031.1 - 0.0 - Partly cloudy 10 - - - -
26/10:30am 11.0 S 9 11 1031.4 - 0.0 - - 10 - - - -
26/10:00am 9.6 S 9 11 1031.4 - 0.0 - - 10 - - - -
26/09:30am 8.4 S 10 12 1031.4 - 0.0 - - 10 - - - -
26/09:00am 6.9 S 10 13 1031.5 - 0.0 - - 10 - - - -
26/08:30am 5.6 S 10 13 1031.3 - 0.0 - - 10 - - - -
26/08:00am 4.3 S 12 14 1031.2 - 0.0 - - 10 - - - -
26/07:30am 3.2 SSE 12 13 1031.1 - 0.0 - - 10 - - - -
26/07:00am 2.5 S 10 12 1030.9 - 0.0 - - 10 - - - -
26/06:30am 2.8 S 11 13 1030.9 - 0.0 - Partly cloudy 10 - - - -
26/06:00am 3.1 S 11 13 1030.8 - 0.0 - - 10 - - - -
26/05:30am 3.2 SSE 12 13 1030.9 - 0.0 - - 10 - - - -
26/05:00am 3.3 SSE 12 13 1030.9 - 0.0 - - 10 - - - -
26/04:30am 3.1 S 9 12 1030.8 - 0.0 - - 10 - - - -
26/04:00am 3.6 S 11 13 1030.7 - 0.0 - - 10 - - - -
26/03:30am 3.5 S 12 14 1030.9 - 0.0 - - 10 - - - -
26/03:00am 3.3 SSE 10 12 1031.1 - 0.0 - - 10 - - - -
26/02:30am 3.6 S 10 12 1031.2 - 0.0 - - 10 - - - -
26/02:00am 3.3 SSE 10 11 1031.5 - 0.0 - - 10 - - - -
26/01:30am 3.9 S 10 12 1031.5 - 0.0 - - 10 - - - -
26/01:00am 3.4 S 8 10 1031.5 - 0.0 - - 10 - - - -
26/12:30am 3.8 SSE 9 11 1031.5 - 0.0 - - 10 - - - -
26/12:00am 3.9 S 8 10 1031.6 - 0.0 - - 10 - - - -
 
Date/Time
EST
Temp

°C
Wind Pressure Rain
since 9am
mm
Weather Cloud Vis
km
Sea
Height
m
Swell
Dir
 
Speed
knots
Gust
knots
hPa Trend Height
m
Period
s
Dir
25/11:30pm 4.1 S 7 8 1031.6 - 0.0 - - 10 - - - -
25/11:00pm 4.5 SSE 6 7 1031.7 - 0.0 - - 10 - - - -
25/10:30pm 4.8 SE 7 8 1031.6 - 0.0 - - 10 - - - -
25/10:00pm 5.2 SSE 8 9 1031.4 - 0.0 - - 10 - - - -
25/09:30pm 5.1 SSE 7 8 1031.2 - 0.0 - - 10 - - - -
25/09:00pm 4.8 SSE 6 7 1031.1 - 0.0 - - 10 - - - -
25/08:30pm 4.9 SSE 8 9 1030.8 - 0.0 - - 10 - - - -
25/08:00pm 4.8 SSE 7 7 1030.6 - 0.0 - - 10 - - - -
25/07:30pm 5.2 S 5 6 1030.5 - 0.0 - - 10 - - - -
25/07:00pm 6.0 CALM 0 0 1030.2 - 0.0 - - 10 - - - -
25/06:30pm 7.6 NNW 5 6 1029.8 - 0.0 - - 10 - - - -
25/06:00pm 8.2 NNW 5 6 1029.3 - 0.0 - - 10 - - - -
25/05:30pm 8.8 NNW 6 7 1028.9 - 0.0 - - 10 - - - -
25/05:00pm 10.0 NNW 5 6 1028.5 - 0.0 - - 10 - - - -
25/04:30pm 10.3 N 5 6 1028.2 - 0.0 - - 10 - - - -
25/04:00pm 10.7 NW 4 6 1028.0 - 0.0 - - 10 - - - -
25/03:30pm 10.4 NNW 4 6 1028.2 - 0.0 - - 10 - - - -

Other Formats:

Comma delimited format used in spreadsheet applications
http://www.bom.gov.au/fwo/IDT60701/IDT60701.95960.axf

JavaScript Object Notation format (JSON) in row-major order
http://www.bom.gov.au/fwo/IDT60701/IDT60701.95960.json